sensor_id;sensor_type;location;lat;lon;timestamp;temperature;humidity
6964;DHT22;3522;50.856;7.278;2024-03-08T00:02:11;3.10;99.90
6964;DHT22;3522;50.856;7.278;2024-03-08T00:04:38;3.10;99.90
6964;DHT22;3522;50.856;7.278;2024-03-08T00:07:05;3.10;99.90
6964;DHT22;3522;50.856;7.278;2024-03-08T00:09:33;3.10;99.90
6964;DHT22;3522;50.856;7.278;2024-03-08T00:12:00;3.10;99.90
6964;DHT22;3522;50.856;7.278;2024-03-08T00:14:26;3.10;99.90
6964;DHT22;3522;50.856;7.278;2024-03-08T00:16:53;3.10;99.90
6964;DHT22;3522;50.856;7.278;2024-03-08T00:19:20;3.00;99.90
6964;DHT22;3522;50.856;7.278;2024-03-08T00:21:46;3.10;99.90
6964;DHT22;3522;50.856;7.278;2024-03-08T00:24:13;3.00;99.90
6964;DHT22;3522;50.856;7.278;2024-03-08T00:26:41;3.00;99.90
6964;DHT22;3522;50.856;7.278;2024-03-08T00:29:08;3.00;99.90
6964;DHT22;3522;50.856;7.278;2024-03-08T00:31:35;3.00;99.90
6964;DHT22;3522;50.856;7.278;2024-03-08T00:34:02;3.00;99.90
6964;DHT22;3522;50.856;7.278;2024-03-08T00:36:29;2.90;99.90
6964;DHT22;3522;50.856;7.278;2024-03-08T00:38:56;2.90;99.90
6964;DHT22;3522;50.856;7.278;2024-03-08T00:41:23;2.90;99.90
6964;DHT22;3522;50.856;7.278;2024-03-08T00:43:53;2.90;99.90
6964;DHT22;3522;50.856;7.278;2024-03-08T00:46:19;2.80;99.90
6964;DHT22;3522;50.856;7.278;2024-03-08T00:48:46;2.80;99.90
6964;DHT22;3522;50.856;7.278;2024-03-08T00:51:12;2.80;99.90
6964;DHT22;3522;50.856;7.278;2024-03-08T00:53:40;2.80;99.90
6964;DHT22;3522;50.856;7.278;2024-03-08T00:56:08;2.90;99.90
6964;DHT22;3522;50.856;7.278;2024-03-08T00:58:36;2.80;99.90
6964;DHT22;3522;50.856;7.278;2024-03-08T01:01:04;2.80;99.90
6964;DHT22;3522;50.856;7.278;2024-03-08T01:03:30;2.80;99.90
6964;DHT22;3522;50.856;7.278;2024-03-08T01:05:58;2.80;99.90
6964;DHT22;3522;50.856;7.278;2024-03-08T01:08:26;2.80;99.90
6964;DHT22;3522;50.856;7.278;2024-03-08T01:10:53;2.80;99.90
6964;DHT22;3522;50.856;7.278;2024-03-08T01:13:19;2.80;99.90
6964;DHT22;3522;50.856;7.278;2024-03-08T01:15:46;2.80;99.90
6964;DHT22;3522;50.856;7.278;2024-03-08T01:18:14;2.80;99.90
6964;DHT22;3522;50.856;7.278;2024-03-08T01:20:41;2.80;99.90
6964;DHT22;3522;50.856;7.278;2024-03-08T01:23:08;2.80;99.90
6964;DHT22;3522;50.856;7.278;2024-03-08T01:25:34;2.80;99.90
6964;DHT22;3522;50.856;7.278;2024-03-08T01:28:01;2.80;99.90
6964;DHT22;3522;50.856;7.278;2024-03-08T01:30:27;2.80;99.90
6964;DHT22;3522;50.856;7.278;2024-03-08T01:32:54;2.70;99.90
6964;DHT22;3522;50.856;7.278;2024-03-08T01:35:22;2.70;99.90
6964;DHT22;3522;50.856;7.278;2024-03-08T01:37:49;2.70;99.90
6964;DHT22;3522;50.856;7.278;2024-03-08T01:40:15;2.70;99.90
6964;DHT22;3522;50.856;7.278;2024-03-08T01:42:42;2.70;99.90
6964;DHT22;3522;50.856;7.278;2024-03-08T01:45:10;2.80;99.90
6964;DHT22;3522;50.856;7.278;2024-03-08T01:47:36;2.70;99.90
6964;DHT22;3522;50.856;7.278;2024-03-08T01:50:03;2.80;99.90
6964;DHT22;3522;50.856;7.278;2024-03-08T01:52:32;2.80;99.90
6964;DHT22;3522;50.856;7.278;2024-03-08T01:55:00;2.70;99.90
6964;DHT22;3522;50.856;7.278;2024-03-08T01:57:29;2.70;99.90
6964;DHT22;3522;50.856;7.278;2024-03-08T01:59:58;2.70;99.90
6964;DHT22;3522;50.856;7.278;2024-03-08T02:02:28;2.70;99.90
6964;DHT22;3522;50.856;7.278;2024-03-08T02:04:56;2.70;99.90
6964;DHT22;3522;50.856;7.278;2024-03-08T02:07:23;2.60;99.90
6964;DHT22;3522;50.856;7.278;2024-03-08T02:09:51;2.60;99.90
6964;DHT22;3522;50.856;7.278;2024-03-08T02:12:18;2.60;99.90
6964;DHT22;3522;50.856;7.278;2024-03-08T02:14:46;2.60;99.90
6964;DHT22;3522;50.856;7.278;2024-03-08T02:17:12;2.60;99.90
6964;DHT22;3522;50.856;7.278;2024-03-08T02:19:39;2.50;99.90
6964;DHT22;3522;50.856;7.278;2024-03-08T02:22:07;2.50;99.90
6964;DHT22;3522;50.856;7.278;2024-03-08T02:24:34;2.50;99.90
6964;DHT22;3522;50.856;7.278;2024-03-08T02:27:00;2.50;99.90
6964;DHT22;3522;50.856;7.278;2024-03-08T02:29:27;2.50;99.90
6964;DHT22;3522;50.856;7.278;2024-03-08T02:31:54;2.50;99.90
6964;DHT22;3522;50.856;7.278;2024-03-08T02:34:21;2.50;99.90
6964;DHT22;3522;50.856;7.278;2024-03-08T02:36:47;2.50;99.90
6964;DHT22;3522;50.856;7.278;2024-03-08T02:39:15;2.60;99.90
6964;DHT22;3522;50.856;7.278;2024-03-08T02:41:42;2.50;99.90
6964;DHT22;3522;50.856;7.278;2024-03-08T02:44:08;2.50;99.90
6964;DHT22;3522;50.856;7.278;2024-03-08T02:46:35;2.50;99.90
6964;DHT22;3522;50.856;7.278;2024-03-08T02:49:02;2.50;99.90
6964;DHT22;3522;50.856;7.278;2024-03-08T02:51:29;2.50;99.90
6964;DHT22;3522;50.856;7.278;2024-03-08T02:53:56;2.50;99.90
6964;DHT22;3522;50.856;7.278;2024-03-08T02:56:24;2.50;99.90
6964;DHT22;3522;50.856;7.278;2024-03-08T02:58:51;2.50;99.90
6964;DHT22;3522;50.856;7.278;2024-03-08T03:01:19;2.50;99.90
6964;DHT22;3522;50.856;7.278;2024-03-08T03:03:45;2.50;99.90
6964;DHT22;3522;50.856;7.278;2024-03-08T03:06:13;2.50;99.90
6964;DHT22;3522;50.856;7.278;2024-03-08T03:08:40;2.50;99.90
6964;DHT22;3522;50.856;7.278;2024-03-08T03:11:09;2.50;99.90
6964;DHT22;3522;50.856;7.278;2024-03-08T03:13:37;2.50;99.90
6964;DHT22;3522;50.856;7.278;2024-03-08T03:16:04;2.40;99.90
6964;DHT22;3522;50.856;7.278;2024-03-08T03:18:30;2.40;99.90
6964;DHT22;3522;50.856;7.278;2024-03-08T03:20:58;2.40;99.90
6964;DHT22;3522;50.856;7.278;2024-03-08T03:23:24;2.30;99.90
6964;DHT22;3522;50.856;7.278;2024-03-08T03:25:51;2.30;99.90
6964;DHT22;3522;50.856;7.278;2024-03-08T03:28:18;2.30;99.90
6964;DHT22;3522;50.856;7.278;2024-03-08T03:30:48;2.30;99.90
6964;DHT22;3522;50.856;7.278;2024-03-08T03:33:15;2.30;99.90
6964;DHT22;3522;50.856;7.278;2024-03-08T03:35:42;2.30;99.90
6964;DHT22;3522;50.856;7.278;2024-03-08T03:38:09;2.30;99.90
6964;DHT22;3522;50.856;7.278;2024-03-08T03:40:36;2.30;99.90
6964;DHT22;3522;50.856;7.278;2024-03-08T03:43:03;2.20;99.90
6964;DHT22;3522;50.856;7.278;2024-03-08T03:45:30;2.30;99.90
6964;DHT22;3522;50.856;7.278;2024-03-08T03:48:02;2.30;99.90
6964;DHT22;3522;50.856;7.278;2024-03-08T03:50:29;2.30;99.90
6964;DHT22;3522;50.856;7.278;2024-03-08T03:52:55;2.30;99.90
6964;DHT22;3522;50.856;7.278;2024-03-08T03:55:22;2.30;99.90
6964;DHT22;3522;50.856;7.278;2024-03-08T03:57:48;2.30;99.90
6964;DHT22;3522;50.856;7.278;2024-03-08T04:00:15;2.30;99.90
6964;DHT22;3522;50.856;7.278;2024-03-08T04:02:42;2.40;99.90
6964;DHT22;3522;50.856;7.278;2024-03-08T04:05:10;2.40;99.90
6964;DHT22;3522;50.856;7.278;2024-03-08T04:07:37;2.30;99.90
6964;DHT22;3522;50.856;7.278;2024-03-08T04:10:04;2.30;99.90
6964;DHT22;3522;50.856;7.278;2024-03-08T04:12:31;2.30;99.90
6964;DHT22;3522;50.856;7.278;2024-03-08T04:14:58;2.30;99.90
6964;DHT22;3522;50.856;7.278;2024-03-08T04:17:25;2.30;99.90
6964;DHT22;3522;50.856;7.278;2024-03-08T04:19:51;2.30;99.90
6964;DHT22;3522;50.856;7.278;2024-03-08T04:22:19;2.30;99.90
6964;DHT22;3522;50.856;7.278;2024-03-08T04:24:46;2.30;99.90
6964;DHT22;3522;50.856;7.278;2024-03-08T04:27:13;2.30;99.90
6964;DHT22;3522;50.856;7.278;2024-03-08T04:29:39;2.30;99.90
6964;DHT22;3522;50.856;7.278;2024-03-08T04:32:06;2.20;99.90
6964;DHT22;3522;50.856;7.278;2024-03-08T04:34:34;2.20;99.90
6964;DHT22;3522;50.856;7.278;2024-03-08T04:37:00;2.20;99.90
6964;DHT22;3522;50.856;7.278;2024-03-08T04:39:28;2.20;99.90
6964;DHT22;3522;50.856;7.278;2024-03-08T04:41:56;2.20;99.90
6964;DHT22;3522;50.856;7.278;2024-03-08T04:44:24;2.10;99.90
6964;DHT22;3522;50.856;7.278;2024-03-08T04:46:50;2.10;99.90
6964;DHT22;3522;50.856;7.278;2024-03-08T04:49:17;2.10;99.90
6964;DHT22;3522;50.856;7.278;2024-03-08T04:51:43;2.10;99.90
6964;DHT22;3522;50.856;7.278;2024-03-08T04:54:11;2.10;99.90
6964;DHT22;3522;50.856;7.278;2024-03-08T04:56:39;2.10;99.90
6964;DHT22;3522;50.856;7.278;2024-03-08T04:59:06;2.10;99.90
6964;DHT22;3522;50.856;7.278;2024-03-08T05:01:33;2.10;99.90
6964;DHT22;3522;50.856;7.278;2024-03-08T05:04:03;2.10;99.90
6964;DHT22;3522;50.856;7.278;2024-03-08T05:06:29;2.10;99.90
6964;DHT22;3522;50.856;7.278;2024-03-08T05:08:56;2.10;99.90
6964;DHT22;3522;50.856;7.278;2024-03-08T05:11:23;2.10;99.90
6964;DHT22;3522;50.856;7.278;2024-03-08T05:13:51;2.10;99.90
6964;DHT22;3522;50.856;7.278;2024-03-08T05:16:17;2.10;99.90
6964;DHT22;3522;50.856;7.278;2024-03-08T05:18:44;2.10;99.90
6964;DHT22;3522;50.856;7.278;2024-03-08T05:21:12;2.10;99.90
6964;DHT22;3522;50.856;7.278;2024-03-08T05:23:38;2.00;99.90
6964;DHT22;3522;50.856;7.278;2024-03-08T05:26:05;2.00;99.90
6964;DHT22;3522;50.856;7.278;2024-03-08T05:28:32;2.00;99.90
6964;DHT22;3522;50.856;7.278;2024-03-08T05:31:00;2.00;99.90
6964;DHT22;3522;50.856;7.278;2024-03-08T05:33:26;2.00;99.90
6964;DHT22;3522;50.856;7.278;2024-03-08T05:35:53;1.90;99.90
6964;DHT22;3522;50.856;7.278;2024-03-08T05:38:19;1.90;99.90
6964;DHT22;3522;50.856;7.278;2024-03-08T05:40:46;1.90;99.90
6964;DHT22;3522;50.856;7.278;2024-03-08T05:43:13;1.90;99.90
6964;DHT22;3522;50.856;7.278;2024-03-08T05:45:42;1.90;99.90
6964;DHT22;3522;50.856;7.278;2024-03-08T05:48:10;1.90;99.90
6964;DHT22;3522;50.856;7.278;2024-03-08T05:50:38;1.90;99.90
6964;DHT22;3522;50.856;7.278;2024-03-08T05:53:04;1.90;99.90
6964;DHT22;3522;50.856;7.278;2024-03-08T05:55:31;1.90;99.90
6964;DHT22;3522;50.856;7.278;2024-03-08T05:58:00;1.80;99.90
6964;DHT22;3522;50.856;7.278;2024-03-08T06:00:27;1.90;99.90
6964;DHT22;3522;50.856;7.278;2024-03-08T06:02:53;1.90;99.90
6964;DHT22;3522;50.856;7.278;2024-03-08T06:05:22;1.90;99.90
6964;DHT22;3522;50.856;7.278;2024-03-08T06:07:50;1.90;99.90
6964;DHT22;3522;50.856;7.278;2024-03-08T06:10:18;1.90;99.90
6964;DHT22;3522;50.856;7.278;2024-03-08T06:12:45;1.90;99.90
6964;DHT22;3522;50.856;7.278;2024-03-08T06:15:11;1.90;99.90
6964;DHT22;3522;50.856;7.278;2024-03-08T06:17:39;1.90;99.90
6964;DHT22;3522;50.856;7.278;2024-03-08T06:20:07;1.90;99.90
6964;DHT22;3522;50.856;7.278;2024-03-08T06:22:37;1.90;99.90
6964;DHT22;3522;50.856;7.278;2024-03-08T06:25:06;1.90;99.90
6964;DHT22;3522;50.856;7.278;2024-03-08T06:27:33;1.90;99.90
6964;DHT22;3522;50.856;7.278;2024-03-08T06:29:59;1.90;99.90
6964;DHT22;3522;50.856;7.278;2024-03-08T06:32:26;1.90;99.90
6964;DHT22;3522;50.856;7.278;2024-03-08T06:34:52;2.00;99.90
6964;DHT22;3522;50.856;7.278;2024-03-08T06:37:19;2.00;99.90
6964;DHT22;3522;50.856;7.278;2024-03-08T06:39:48;2.00;99.90
6964;DHT22;3522;50.856;7.278;2024-03-08T06:42:16;2.10;99.90
6964;DHT22;3522;50.856;7.278;2024-03-08T06:44:43;2.10;99.90
6964;DHT22;3522;50.856;7.278;2024-03-08T06:47:14;2.10;99.90
6964;DHT22;3522;50.856;7.278;2024-03-08T06:49:41;2.20;99.90
6964;DHT22;3522;50.856;7.278;2024-03-08T06:52:08;2.20;99.90
6964;DHT22;3522;50.856;7.278;2024-03-08T06:54:34;2.20;99.90
6964;DHT22;3522;50.856;7.278;2024-03-08T06:57:03;2.30;99.90
6964;DHT22;3522;50.856;7.278;2024-03-08T06:59:30;2.30;99.90
6964;DHT22;3522;50.856;7.278;2024-03-08T07:01:56;2.40;99.90
6964;DHT22;3522;50.856;7.278;2024-03-08T07:04:24;2.50;99.90
6964;DHT22;3522;50.856;7.278;2024-03-08T07:06:54;2.50;99.90
6964;DHT22;3522;50.856;7.278;2024-03-08T07:09:20;2.60;99.90
6964;DHT22;3522;50.856;7.278;2024-03-08T07:11:47;2.80;99.90
6964;DHT22;3522;50.856;7.278;2024-03-08T07:14:22;2.90;99.90
6964;DHT22;3522;50.856;7.278;2024-03-08T07:16:48;3.10;99.90
6964;DHT22;3522;50.856;7.278;2024-03-08T07:19:18;3.20;99.90
6964;DHT22;3522;50.856;7.278;2024-03-08T07:21:47;3.30;99.90
6964;DHT22;3522;50.856;7.278;2024-03-08T07:24:13;3.40;99.90
6964;DHT22;3522;50.856;7.278;2024-03-08T07:26:57;3.50;99.90
6964;DHT22;3522;50.856;7.278;2024-03-08T07:29:26;3.70;99.90
6964;DHT22;3522;50.856;7.278;2024-03-08T07:31:53;3.90;99.90
6964;DHT22;3522;50.856;7.278;2024-03-08T07:34:33;4.00;99.90
6964;DHT22;3522;50.856;7.278;2024-03-08T07:36:59;4.10;99.90
6964;DHT22;3522;50.856;7.278;2024-03-08T07:39:26;4.20;99.90
6964;DHT22;3522;50.856;7.278;2024-03-08T07:41:52;4.30;99.90
6964;DHT22;3522;50.856;7.278;2024-03-08T07:44:19;4.50;99.90
6964;DHT22;3522;50.856;7.278;2024-03-08T07:46:47;4.60;99.90
6964;DHT22;3522;50.856;7.278;2024-03-08T07:49:14;4.70;99.90
6964;DHT22;3522;50.856;7.278;2024-03-08T07:51:40;4.70;99.90
6964;DHT22;3522;50.856;7.278;2024-03-08T07:54:07;4.80;99.90
6964;DHT22;3522;50.856;7.278;2024-03-08T07:56:34;4.90;99.90
6964;DHT22;3522;50.856;7.278;2024-03-08T07:59:01;4.80;99.90
6964;DHT22;3522;50.856;7.278;2024-03-08T08:01:29;4.90;99.90
6964;DHT22;3522;50.856;7.278;2024-03-08T08:03:57;4.90;99.90
6964;DHT22;3522;50.856;7.278;2024-03-08T08:06:24;4.90;99.90
6964;DHT22;3522;50.856;7.278;2024-03-08T08:08:50;5.00;99.90
6964;DHT22;3522;50.856;7.278;2024-03-08T08:11:17;5.10;99.90
6964;DHT22;3522;50.856;7.278;2024-03-08T08:13:44;5.20;99.90
6964;DHT22;3522;50.856;7.278;2024-03-08T08:16:10;5.30;99.90
6964;DHT22;3522;50.856;7.278;2024-03-08T08:18:38;5.40;99.90
6964;DHT22;3522;50.856;7.278;2024-03-08T08:21:06;5.50;99.90
6964;DHT22;3522;50.856;7.278;2024-03-08T08:23:32;5.80;99.90
6964;DHT22;3522;50.856;7.278;2024-03-08T08:25:59;5.80;99.90
6964;DHT22;3522;50.856;7.278;2024-03-08T08:28:28;5.80;99.90
6964;DHT22;3522;50.856;7.278;2024-03-08T08:30:56;6.00;99.90
6964;DHT22;3522;50.856;7.278;2024-03-08T08:33:22;6.10;99.90
6964;DHT22;3522;50.856;7.278;2024-03-08T08:35:50;6.10;99.90
6964;DHT22;3522;50.856;7.278;2024-03-08T08:38:20;6.40;99.90
6964;DHT22;3522;50.856;7.278;2024-03-08T08:40:50;6.60;99.90
6964;DHT22;3522;50.856;7.278;2024-03-08T08:43:17;6.80;99.90
6964;DHT22;3522;50.856;7.278;2024-03-08T08:45:46;6.80;99.90
6964;DHT22;3522;50.856;7.278;2024-03-08T08:48:15;6.90;99.90
6964;DHT22;3522;50.856;7.278;2024-03-08T08:50:42;7.10;99.90
6964;DHT22;3522;50.856;7.278;2024-03-08T08:53:09;7.40;99.90
6964;DHT22;3522;50.856;7.278;2024-03-08T08:58:09;7.60;99.90
6964;DHT22;3522;50.856;7.278;2024-03-08T09:00:36;7.70;99.90
6964;DHT22;3522;50.856;7.278;2024-03-08T09:03:03;7.80;99.90
6964;DHT22;3522;50.856;7.278;2024-03-08T09:05:32;7.90;99.90
6964;DHT22;3522;50.856;7.278;2024-03-08T09:07:59;7.80;99.90
6964;DHT22;3522;50.856;7.278;2024-03-08T09:10:26;7.80;99.90
6964;DHT22;3522;50.856;7.278;2024-03-08T09:12:53;7.90;99.90
6964;DHT22;3522;50.856;7.278;2024-03-08T09:15:21;7.90;99.90
6964;DHT22;3522;50.856;7.278;2024-03-08T09:17:48;8.10;99.90
6964;DHT22;3522;50.856;7.278;2024-03-08T09:20:14;8.20;99.90
6964;DHT22;3522;50.856;7.278;2024-03-08T09:22:43;8.60;99.90
6964;DHT22;3522;50.856;7.278;2024-03-08T09:25:10;8.80;99.90
6964;DHT22;3522;50.856;7.278;2024-03-08T09:27:36;9.20;99.90
6964;DHT22;3522;50.856;7.278;2024-03-08T09:30:06;9.30;99.90
6964;DHT22;3522;50.856;7.278;2024-03-08T09:32:34;9.50;99.90
6964;DHT22;3522;50.856;7.278;2024-03-08T09:35:02;9.50;99.90
6964;DHT22;3522;50.856;7.278;2024-03-08T09:37:28;9.60;99.90
6964;DHT22;3522;50.856;7.278;2024-03-08T09:39:56;9.80;99.90
6964;DHT22;3522;50.856;7.278;2024-03-08T09:42:24;10.00;99.90
6964;DHT22;3522;50.856;7.278;2024-03-08T09:44:51;9.80;99.90
6964;DHT22;3522;50.856;7.278;2024-03-08T09:47:18;9.60;99.90
6964;DHT22;3522;50.856;7.278;2024-03-08T09:49:49;9.70;99.90
6964;DHT22;3522;50.856;7.278;2024-03-08T09:52:16;9.80;99.90
6964;DHT22;3522;50.856;7.278;2024-03-08T09:54:43;9.70;99.90
6964;DHT22;3522;50.856;7.278;2024-03-08T09:57:10;10.00;99.90
6964;DHT22;3522;50.856;7.278;2024-03-08T09:59:36;10.10;99.90
6964;DHT22;3522;50.856;7.278;2024-03-08T10:02:14;10.10;99.90
6964;DHT22;3522;50.856;7.278;2024-03-08T10:04:41;10.20;99.90
6964;DHT22;3522;50.856;7.278;2024-03-08T10:07:09;10.20;99.90
6964;DHT22;3522;50.856;7.278;2024-03-08T10:09:36;10.40;99.90
6964;DHT22;3522;50.856;7.278;2024-03-08T10:12:03;10.20;99.90
6964;DHT22;3522;50.856;7.278;2024-03-08T10:14:30;10.30;99.90
6964;DHT22;3522;50.856;7.278;2024-03-08T10:16:57;10.40;99.90
6964;DHT22;3522;50.856;7.278;2024-03-08T10:19:25;10.40;99.90
6964;DHT22;3522;50.856;7.278;2024-03-08T10:21:52;10.30;99.90
6964;DHT22;3522;50.856;7.278;2024-03-08T10:24:20;10.30;99.90
6964;DHT22;3522;50.856;7.278;2024-03-08T10:26:50;10.30;99.90
6964;DHT22;3522;50.856;7.278;2024-03-08T10:29:18;10.40;99.90
6964;DHT22;3522;50.856;7.278;2024-03-08T10:31:45;10.70;99.90
6964;DHT22;3522;50.856;7.278;2024-03-08T10:34:12;10.70;99.80
6964;DHT22;3522;50.856;7.278;2024-03-08T10:36:38;10.90;99.90
6964;DHT22;3522;50.856;7.278;2024-03-08T10:39:06;11.00;99.90
6964;DHT22;3522;50.856;7.278;2024-03-08T10:41:37;11.10;98.80
6964;DHT22;3522;50.856;7.278;2024-03-08T10:44:08;11.00;98.70
6964;DHT22;3522;50.856;7.278;2024-03-08T10:46:40;11.00;98.70
6964;DHT22;3522;50.856;7.278;2024-03-08T10:49:17;11.00;98.60
6964;DHT22;3522;50.856;7.278;2024-03-08T10:51:44;10.90;98.20
6964;DHT22;3522;50.856;7.278;2024-03-08T10:54:11;11.10;98.20
6964;DHT22;3522;50.856;7.278;2024-03-08T10:56:39;11.10;98.10
6964;DHT22;3522;50.856;7.278;2024-03-08T10:59:06;11.20;97.60
6964;DHT22;3522;50.856;7.278;2024-03-08T11:01:33;11.10;97.40
6964;DHT22;3522;50.856;7.278;2024-03-08T11:04:00;11.30;97.70
6964;DHT22;3522;50.856;7.278;2024-03-08T11:06:30;11.30;96.10
6964;DHT22;3522;50.856;7.278;2024-03-08T11:09:01;11.20;96.20
6964;DHT22;3522;50.856;7.278;2024-03-08T11:11:28;11.30;96.00
6964;DHT22;3522;50.856;7.278;2024-03-08T11:13:58;11.50;96.40
6964;DHT22;3522;50.856;7.278;2024-03-08T11:16:36;11.50;94.60
6964;DHT22;3522;50.856;7.278;2024-03-08T11:19:06;11.40;94.50
6964;DHT22;3522;50.856;7.278;2024-03-08T11:21:36;11.60;95.20
6964;DHT22;3522;50.856;7.278;2024-03-08T11:24:06;11.50;94.10
6964;DHT22;3522;50.856;7.278;2024-03-08T11:26:35;11.40;93.10
6964;DHT22;3522;50.856;7.278;2024-03-08T11:31:51;11.50;95.50
6964;DHT22;3522;50.856;7.278;2024-03-08T11:34:19;11.80;95.50
6964;DHT22;3522;50.856;7.278;2024-03-08T11:36:47;12.00;94.90
6964;DHT22;3522;50.856;7.278;2024-03-08T11:39:14;12.30;94.70
6964;DHT22;3522;50.856;7.278;2024-03-08T11:41:42;12.40;92.00
6964;DHT22;3522;50.856;7.278;2024-03-08T11:44:10;12.30;93.90
6964;DHT22;3522;50.856;7.278;2024-03-08T11:46:41;12.60;94.40
6964;DHT22;3522;50.856;7.278;2024-03-08T11:49:13;12.80;92.80
6964;DHT22;3522;50.856;7.278;2024-03-08T11:51:41;12.90;92.70
6964;DHT22;3522;50.856;7.278;2024-03-08T11:54:10;12.80;93.30
6964;DHT22;3522;50.856;7.278;2024-03-08T11:56:37;12.80;92.00
6964;DHT22;3522;50.856;7.278;2024-03-08T11:59:04;12.70;92.50
6964;DHT22;3522;50.856;7.278;2024-03-08T12:01:30;12.60;92.00
6964;DHT22;3522;50.856;7.278;2024-03-08T12:03:57;12.50;91.80
6964;DHT22;3522;50.856;7.278;2024-03-08T12:06:26;12.40;92.40
6964;DHT22;3522;50.856;7.278;2024-03-08T12:08:54;12.40;92.50
6964;DHT22;3522;50.856;7.278;2024-03-08T12:11:21;12.30;92.40
6964;DHT22;3522;50.856;7.278;2024-03-08T12:13:48;12.40;92.70
6964;DHT22;3522;50.856;7.278;2024-03-08T12:16:16;12.30;91.90
6964;DHT22;3522;50.856;7.278;2024-03-08T12:18:44;12.40;92.30
6964;DHT22;3522;50.856;7.278;2024-03-08T12:21:14;12.20;91.00
6964;DHT22;3522;50.856;7.278;2024-03-08T12:23:46;12.20;91.60
6964;DHT22;3522;50.856;7.278;2024-03-08T12:26:16;12.20;91.50
6964;DHT22;3522;50.856;7.278;2024-03-08T12:28:43;12.00;91.50
6964;DHT22;3522;50.856;7.278;2024-03-08T12:31:11;11.90;92.50
6964;DHT22;3522;50.856;7.278;2024-03-08T12:33:46;11.90;92.10
6964;DHT22;3522;50.856;7.278;2024-03-08T12:36:14;12.10;91.80
6964;DHT22;3522;50.856;7.278;2024-03-08T12:38:43;12.00;91.50
6964;DHT22;3522;50.856;7.278;2024-03-08T12:41:14;11.90;91.00
6964;DHT22;3522;50.856;7.278;2024-03-08T12:43:42;12.00;91.90
6964;DHT22;3522;50.856;7.278;2024-03-08T12:46:14;12.10;91.40
6964;DHT22;3522;50.856;7.278;2024-03-08T12:48:40;11.90;91.00
6964;DHT22;3522;50.856;7.278;2024-03-08T12:51:09;12.00;90.30
6964;DHT22;3522;50.856;7.278;2024-03-08T12:53:36;12.00;90.00
6964;DHT22;3522;50.856;7.278;2024-03-08T12:56:06;12.00;91.50
6964;DHT22;3522;50.856;7.278;2024-03-08T12:58:35;11.90;90.40
6964;DHT22;3522;50.856;7.278;2024-03-08T13:01:02;11.80;90.90
6964;DHT22;3522;50.856;7.278;2024-03-08T13:03:30;11.90;91.10
6964;DHT22;3522;50.856;7.278;2024-03-08T13:05:56;11.80;91.30
6964;DHT22;3522;50.856;7.278;2024-03-08T13:08:23;11.90;90.40
6964;DHT22;3522;50.856;7.278;2024-03-08T13:10:53;11.80;91.60
6964;DHT22;3522;50.856;7.278;2024-03-08T13:13:19;12.00;91.00
6964;DHT22;3522;50.856;7.278;2024-03-08T13:15:47;12.00;92.00
6964;DHT22;3522;50.856;7.278;2024-03-08T13:18:14;12.00;91.20
6964;DHT22;3522;50.856;7.278;2024-03-08T13:20:41;11.90;91.00
6964;DHT22;3522;50.856;7.278;2024-03-08T13:23:09;11.90;91.30
6964;DHT22;3522;50.856;7.278;2024-03-08T13:25:36;11.90;90.70
6964;DHT22;3522;50.856;7.278;2024-03-08T13:28:04;12.00;90.30
6964;DHT22;3522;50.856;7.278;2024-03-08T13:30:32;12.00;91.20
6964;DHT22;3522;50.856;7.278;2024-03-08T13:33:00;12.10;91.70
6964;DHT22;3522;50.856;7.278;2024-03-08T13:35:29;11.90;89.90
6964;DHT22;3522;50.856;7.278;2024-03-08T13:37:56;11.80;91.50
6964;DHT22;3522;50.856;7.278;2024-03-08T13:40:23;11.70;91.00
6964;DHT22;3522;50.856;7.278;2024-03-08T13:42:51;11.70;90.70
6964;DHT22;3522;50.856;7.278;2024-03-08T13:45:17;11.70;91.30
6964;DHT22;3522;50.856;7.278;2024-03-08T13:47:49;11.60;91.00
6964;DHT22;3522;50.856;7.278;2024-03-08T13:50:18;11.60;91.20
6964;DHT22;3522;50.856;7.278;2024-03-08T13:52:46;11.60;92.20
6964;DHT22;3522;50.856;7.278;2024-03-08T13:55:14;11.50;91.20
6964;DHT22;3522;50.856;7.278;2024-03-08T13:57:41;11.50;92.10
6964;DHT22;3522;50.856;7.278;2024-03-08T14:00:08;11.50;92.70
6964;DHT22;3522;50.856;7.278;2024-03-08T14:02:35;11.60;93.30
6964;DHT22;3522;50.856;7.278;2024-03-08T14:05:01;11.40;91.60
6964;DHT22;3522;50.856;7.278;2024-03-08T14:07:29;11.50;93.10
6964;DHT22;3522;50.856;7.278;2024-03-08T14:09:56;11.60;93.80
6964;DHT22;3522;50.856;7.278;2024-03-08T14:12:22;11.70;92.20
6964;DHT22;3522;50.856;7.278;2024-03-08T14:14:51;11.70;91.70
6964;DHT22;3522;50.856;7.278;2024-03-08T14:17:19;11.80;92.20
6964;DHT22;3522;50.856;7.278;2024-03-08T14:19:46;11.70;92.40
6964;DHT22;3522;50.856;7.278;2024-03-08T14:22:23;11.70;92.80
6964;DHT22;3522;50.856;7.278;2024-03-08T14:24:51;11.60;92.10
6964;DHT22;3522;50.856;7.278;2024-03-08T14:27:21;11.60;92.30
6964;DHT22;3522;50.856;7.278;2024-03-08T14:29:48;11.70;91.50
6964;DHT22;3522;50.856;7.278;2024-03-08T14:32:14;11.60;92.30
6964;DHT22;3522;50.856;7.278;2024-03-08T14:34:44;11.60;93.20
6964;DHT22;3522;50.856;7.278;2024-03-08T14:37:11;11.70;94.00
6964;DHT22;3522;50.856;7.278;2024-03-08T14:39:39;11.70;92.80
6964;DHT22;3522;50.856;7.278;2024-03-08T14:42:07;11.60;91.40
6964;DHT22;3522;50.856;7.278;2024-03-08T14:44:38;11.50;91.90
6964;DHT22;3522;50.856;7.278;2024-03-08T14:47:05;11.50;92.70
6964;DHT22;3522;50.856;7.278;2024-03-08T14:49:31;11.50;92.50
6964;DHT22;3522;50.856;7.278;2024-03-08T14:52:01;11.60;93.10
6964;DHT22;3522;50.856;7.278;2024-03-08T14:54:28;11.50;92.10
6964;DHT22;3522;50.856;7.278;2024-03-08T14:56:55;11.50;91.70
6964;DHT22;3522;50.856;7.278;2024-03-08T14:59:23;11.50;92.40
6964;DHT22;3522;50.856;7.278;2024-03-08T15:01:51;11.50;92.30
6964;DHT22;3522;50.856;7.278;2024-03-08T15:04:17;11.50;92.30
6964;DHT22;3522;50.856;7.278;2024-03-08T15:06:45;11.50;92.50
6964;DHT22;3522;50.856;7.278;2024-03-08T15:09:13;11.40;93.20
6964;DHT22;3522;50.856;7.278;2024-03-08T15:11:44;11.40;93.20
6964;DHT22;3522;50.856;7.278;2024-03-08T15:14:11;11.40;93.30
6964;DHT22;3522;50.856;7.278;2024-03-08T15:16:40;11.40;94.10
6964;DHT22;3522;50.856;7.278;2024-03-08T15:19:07;11.30;92.90
6964;DHT22;3522;50.856;7.278;2024-03-08T15:21:34;11.30;94.10
6964;DHT22;3522;50.856;7.278;2024-03-08T15:24:01;11.30;93.10
6964;DHT22;3522;50.856;7.278;2024-03-08T15:26:28;11.30;94.30
6964;DHT22;3522;50.856;7.278;2024-03-08T15:28:56;11.20;94.30
6964;DHT22;3522;50.856;7.278;2024-03-08T15:31:23;11.20;92.70
6964;DHT22;3522;50.856;7.278;2024-03-08T15:33:51;11.00;93.10
6964;DHT22;3522;50.856;7.278;2024-03-08T15:36:25;10.90;94.60
6964;DHT22;3522;50.856;7.278;2024-03-08T15:38:54;10.80;94.80
6964;DHT22;3522;50.856;7.278;2024-03-08T15:41:21;10.80;94.40
6964;DHT22;3522;50.856;7.278;2024-03-08T15:43:47;10.80;94.90
6964;DHT22;3522;50.856;7.278;2024-03-08T15:46:20;10.80;94.10
6964;DHT22;3522;50.856;7.278;2024-03-08T15:48:48;10.70;95.30
6964;DHT22;3522;50.856;7.278;2024-03-08T15:51:18;10.60;94.90
6964;DHT22;3522;50.856;7.278;2024-03-08T15:53:44;10.60;94.60
6964;DHT22;3522;50.856;7.278;2024-03-08T15:56:18;10.50;94.80
6964;DHT22;3522;50.856;7.278;2024-03-08T15:58:45;10.40;94.90
6964;DHT22;3522;50.856;7.278;2024-03-08T16:01:11;10.50;95.40
6964;DHT22;3522;50.856;7.278;2024-03-08T16:03:41;10.30;95.30
6964;DHT22;3522;50.856;7.278;2024-03-08T16:06:08;10.20;95.50
6964;DHT22;3522;50.856;7.278;2024-03-08T16:08:36;10.10;95.80
6964;DHT22;3522;50.856;7.278;2024-03-08T16:11:05;10.10;95.40
6964;DHT22;3522;50.856;7.278;2024-03-08T16:13:32;10.00;96.20
6964;DHT22;3522;50.856;7.278;2024-03-08T16:16:03;10.00;96.10
6964;DHT22;3522;50.856;7.278;2024-03-08T16:18:39;10.00;96.30
6964;DHT22;3522;50.856;7.278;2024-03-08T16:21:06;9.90;97.40